Time;durP1;ratioP1;P1;durP2;ratioP2;P2;SDS_P1;SDS_P2;PMS_P1;PMS_P2;Temp;Humidity;BMP_temperature;BMP_pressure;BME280_temperature;BME280_humidity;BME280_pressure;Samples;Min_cycle;Max_cycle;Signal;HPM_P1;HPM_P2
2023/02/02 13:55:50;;;;;;;6.23;1.03;;;;;;;7.32;70.55;101298.38;4993524;28;20568;-67
2023/02/02 13:58:35;;;;;;;6.53;0.80;;;;;;;7.17;70.16;101306.34;4996156;28;20433;-67
2023/02/02 14:01:06;;;;;;;5.33;0.70;;;;;;;6.99;71.83;101312.97;4996041;28;20467;-67
2023/02/02 14:03:38;;;;;;;4.20;0.60;;;;;;;6.96;74.25;101316.22;4995838;28;20443;-63
2023/02/02 14:06:09;;;;;;;4.10;0.50;;;;;;;6.92;74.42;101317.78;4995877;28;20430;-63
2023/02/02 14:08:36;;;;;;;10.43;1.23;;;;;;;6.91;73.08;101326.94;4995869;28;20459;-66
2023/02/02 14:11:07;;;;;;;4.17;0.60;;;;;;;6.81;73.12;101336.53;4995442;28;20473;-63
2023/02/02 14:16:48;;;;;;;4.70;0.60;;;;;;;6.71;74.96;101349.94;4995168;28;20471;-66
2023/02/02 14:19:16;;;;;;;5.13;0.90;;;;;;;6.60;73.86;101356.31;4995733;28;20461;-67
2023/02/02 14:22:00;;;;;;;4.30;0.73;;;;;;;6.65;74.10;101361.72;4995565;28;20556;-66
2023/02/02 14:24:42;;;;;;;5.13;0.77;;;;;;;6.59;74.13;101360.03;4995538;28;20453;-66
2023/02/02 14:27:54;;;;;;;6.57;1.20;;;;;;;6.55;74.40;101359.75;4995658;28;20436;-67
2023/02/02 14:30:26;;;;;;;4.77;0.80;;;;;;;6.35;72.18;101370.31;4995334;28;20461;-67
2023/02/02 14:32:52;;;;;;;5.20;1.10;;;;;;;6.26;73.55;101375.34;4995512;28;20491;-67
2023/02/02 14:35:55;;;;;;;4.40;0.83;;;;;;;6.27;74.01;101378.84;4995151;28;20818;-67
2023/02/02 14:38:36;;;;;;;4.30;0.60;;;;;;;6.19;71.92;101393.53;4935126;29;20451;-67
2023/02/02 14:43:42;;;;;;;5.13;0.60;;;;;;;6.06;73.86;101392.06;4989148;28;20477;-67
2023/02/02 14:44:04;;;;;;;6.20;0.60;;;;;;;5.85;71.77;101395.53;4994635;28;20528;-67
2023/02/02 14:46:38;;;;;;;5.00;0.80;;;;;;;5.81;72.27;101399.78;4995201;28;20575;-67
2023/02/02 14:49:14;;;;;;;6.30;0.47;;;;;;;5.83;72.12;101406.50;4995042;28;20480;-67
2023/02/02 14:51:55;;;;;;;4.50;0.60;;;;;;;5.79;71.64;101410.75;4994974;28;20469;-67
2023/02/02 14:54:25;;;;;;;6.80;0.60;;;;;;;5.58;72.91;101419.63;4994450;28;20461;-66
2023/02/02 14:56:56;;;;;;;5.37;0.70;;;;;;;5.59;73.81;101421.25;4994856;28;20429;-66
2023/02/02 14:59:27;;;;;;;4.10;0.57;;;;;;;5.63;73.51;101433.13;4994878;28;20531;-67
2023/02/02 15:02:02;;;;;;;5.37;0.70;;;;;;;5.64;73.84;101433.94;4994513;28;20548;-67
2023/02/02 15:04:29;;;;;;;5.27;0.63;;;;;;;5.61;74.19;101440.59;4994447;28;20421;-67
2023/02/02 15:07:16;;;;;;;8.83;0.70;;;;;;;5.57;75.65;101434.91;4994765;28;20440;-68
2023/02/02 15:09:44;;;;;;;4.40;0.60;;;;;;;5.59;75.78;101447.31;4994326;28;20451;-68
2023/02/02 15:12:33;;;;;;;4.70;0.60;;;;;;;5.62;77.53;101446.78;4994239;28;20990;-67
2023/02/02 15:15:21;;;;;;;5.63;1.00;;;;;;;5.48;76.59;101457.88;4990259;28;20575;-68
2023/02/02 15:18:03;;;;;;;4.80;0.70;;;;;;;5.50;75.96;101463.84;4994241;28;20824;-69
2023/02/02 15:20:32;;;;;;;5.70;1.23;;;;;;;5.47;75.70;101471.56;4994495;28;20461;-69
2023/02/02 15:23:05;;;;;;;4.63;0.80;;;;;;;5.36;76.44;101467.09;4994466;28;20473;-68
2023/02/02 15:25:36;;;;;;;4.60;0.70;;;;;;;5.35;76.63;101474.31;4994428;28;20425;-69
2023/02/02 15:28:12;;;;;;;8.00;0.90;;;;;;;5.35;77.09;101481.56;4993663;28;20881;-68
2023/02/02 15:30:43;;;;;;;5.53;0.90;;;;;;;5.30;77.20;101493.88;4994277;28;20523;-69
2023/02/02 15:33:29;;;;;;;5.70;1.03;;;;;;;5.17;75.49;101499.53;4994305;28;20843;-69
2023/02/02 15:35:59;;;;;;;10.80;0.70;;;;;;;5.02;73.90;101505.47;4994342;28;20473;-69
2023/02/02 15:38:33;;;;;;;4.80;0.70;;;;;;;5.06;74.91;101509.31;4994255;28;20817;-69
2023/02/02 15:41:05;;;;;;;8.37;0.73;;;;;;;4.99;76.78;101513.19;4993789;28;20464;-69
2023/02/02 15:43:31;;;;;;;3.97;0.50;;;;;;;4.93;76.93;101514.16;4994429;28;20444;-68
2023/02/02 15:46:04;;;;;;;4.83;0.80;;;;;;;4.95;75.63;101515.53;4993900;28;20477;-69
2023/02/02 15:48:35;;;;;;;4.00;0.50;;;;;;;4.92;74.88;101517.91;4994302;28;20516;-68
2023/02/02 15:51:05;;;;;;;6.93;0.57;;;;;;;4.75;73.83;101529.41;4994056;28;20469;-68
2023/02/02 15:53:34;;;;;;;4.93;0.60;;;;;;;4.74;74.53;101532.34;4993790;28;20541;-69
2023/02/02 15:56:18;;;;;;;5.50;0.50;;;;;;;4.72;74.15;101540.59;4993846;28;20568;-68
2023/02/02 15:58:47;;;;;;;4.43;0.60;;;;;;;4.71;76.31;101535.47;4993969;28;20433;-67
2023/02/02 16:01:17;;;;;;;4.53;0.67;;;;;;;4.58;74.22;101549.97;4993794;28;20483;-65
2023/02/02 16:03:52;;;;;;;5.70;0.60;;;;;;;4.57;75.33;101552.91;4993545;28;20447;-67
2023/02/02 16:06:19;;;;;;;4.80;0.50;;;;;;;4.55;73.81;101562.00;4993929;28;20431;-66
2023/02/02 16:08:46;;;;;;;4.37;0.60;;;;;;;4.57;75.15;101564.44;4993840;28;20555;-66
2023/02/02 16:11:15;;;;;;;4.47;0.57;;;;;;;4.42;74.42;101567.59;4993484;28;21019;-66
2023/02/02 16:13:50;;;;;;;5.50;1.00;;;;;;;4.40;75.24;101576.97;4993760;28;20449;-66
2023/02/02 16:16:28;;;;;;;4.20;0.60;;;;;;;4.37;75.68;101585.47;4993651;28;20476;-68
2023/02/02 16:19:05;;;;;;;5.40;0.70;;;;;;;4.37;76.40;101590.81;4993511;28;20429;-67
2023/02/02 16:21:33;;;;;;;6.30;1.10;;;;;;;4.32;77.95;101591.53;4993301;28;20548;-68
2023/02/02 16:24:01;;;;;;;4.30;0.60;;;;;;;4.32;78.32;101609.50;4993372;28;20531;-66
2023/02/02 16:26:31;;;;;;;7.87;1.50;;;;;;;4.19;79.14;101618.59;4993078;28;20535;-67
2023/02/02 16:28:57;;;;;;;5.90;1.23;;;;;;;4.18;80.34;101622.31;4992946;28;20440;-67
2023/02/02 16:31:25;;;;;;;5.87;1.30;;;;;;;4.14;80.39;101632.69;4993199;28;20515;-67
2023/02/02 16:33:51;;;;;;;4.63;0.90;;;;;;;4.06;81.13;101635.72;4992940;28;20437;-68
2023/02/02 16:36:21;;;;;;;9.77;0.73;;;;;;;3.95;80.01;101637.34;4993166;28;20489;-67
2023/02/02 16:38:51;;;;;;;4.60;1.00;;;;;;;3.96;80.67;101638.97;4995152;28;20443;-68
2023/02/02 16:41:26;;;;;;;5.70;0.93;;;;;;;3.87;81.25;101647.56;4997010;28;20477;-68
2023/02/02 16:43:53;;;;;;;5.47;0.80;;;;;;;3.78;82.10;101655.13;4997128;28;20461;-68
2023/02/02 16:46:44;;;;;;;9.63;1.37;;;;;;;3.62;82.65;101650.41;4997029;28;20485;-66
2023/02/02 16:49:17;;;;;;;4.30;0.80;;;;;;;3.52;85.38;101659.81;4997038;28;20488;-66
2023/02/02 16:51:48;;;;;;;5.43;1.17;;;;;;;3.40;86.78;101656.25;4996635;28;20974;-66
2023/02/02 16:54:19;;;;;;;4.80;1.07;;;;;;;3.27;88.06;101662.59;4996623;28;20487;-67
2023/02/02 16:56:50;;;;;;;4.43;0.70;;;;;;;3.15;89.59;101664.44;4996526;28;20557;-67
2023/02/02 16:59:21;;;;;;;4.90;0.83;;;;;;;3.04;90.87;101674.00;4996892;28;20433;-66
2023/02/02 17:01:51;;;;;;;11.00;1.07;;;;;;;2.98;91.13;101672.25;4996744;28;20460;-66
2023/02/02 17:04:21;;;;;;;4.67;0.93;;;;;;;2.93;91.64;101669.41;4997022;28;20437;-68
2023/02/02 17:06:50;;;;;;;4.90;0.80;;;;;;;2.90;91.32;101671.72;4996394;28;20980;-67
2023/02/02 17:09:27;;;;;;;6.60;1.23;;;;;;;2.75;91.37;101675.59;4996610;28;20440;-67
2023/02/02 17:11:59;;;;;;;4.67;1.03;;;;;;;2.62;91.85;101682.94;4996622;28;20475;-67
2023/02/02 17:14:33;;;;;;;6.87;1.20;;;;;;;2.52;92.87;101680.72;4996851;28;20437;-67
2023/02/02 17:17:03;;;;;;;5.07;0.97;;;;;;;2.49;92.94;101679.34;4996796;28;20559;-67
2023/02/02 17:19:30;;;;;;;5.23;1.10;;;;;;;2.43;93.48;101687.41;4996458;28;21004;-67
2023/02/02 17:22:01;;;;;;;4.83;0.87;;;;;;;2.35;93.46;101687.72;4996693;28;20471;-67
2023/02/02 17:24:28;;;;;;;6.27;1.63;;;;;;;2.31;93.39;101689.19;4996770;28;20429;-67
2023/02/02 17:26:54;;;;;;;6.63;1.67;;;;;;;2.20;95.01;101690.69;4996645;28;20444;-68
2023/02/02 17:29:22;;;;;;;7.70;1.80;;;;;;;2.15;95.09;101691.34;4996585;28;20452;-67
2023/02/02 17:31:50;;;;;;;4.67;1.07;;;;;;;2.12;94.82;101699.78;4996056;28;20473;-67
2023/02/02 17:34:17;;;;;;;6.10;2.00;;;;;;;1.94;97.40;101702.38;4996483;28;20453;-67
2023/02/02 17:36:44;;;;;;;6.40;1.50;;;;;;;1.85;97.53;101706.34;4996426;28;20503;-67
2023/02/02 17:39:12;;;;;;;9.33;1.20;;;;;;;1.66;98.87;101711.59;4996450;28;20859;-68
2023/02/02 17:41:39;;;;;;;4.60;1.13;;;;;;;1.66;97.61;101713.44;4996324;28;20490;-67
2023/02/02 17:44:08;;;;;;;6.50;1.73;;;;;;;1.54;96.94;101718.63;4996070;28;20539;-68
2023/02/02 17:46:35;;;;;;;4.73;1.30;;;;;;;1.46;95.91;101718.88;4995984;28;20937;-67
2023/02/02 17:49:01;;;;;;;5.13;1.20;;;;;;;1.50;96.78;101720.91;4996213;28;20460;-68
2023/02/02 17:51:29;;;;;;;4.93;1.30;;;;;;;1.44;96.31;101728.97;4995324;28;20479;-67
2023/02/02 17:53:58;;;;;;;4.60;1.13;;;;;;;1.55;96.31;101733.66;4995985;28;20467;-66
2023/02/02 17:56:27;;;;;;;7.30;1.47;;;;;;;1.58;95.55;101733.19;4996081;28;20481;-68
2023/02/02 17:58:53;;;;;;;6.30;1.50;;;;;;;1.55;95.74;101732.81;4995732;28;20857;-67
2023/02/02 18:01:20;;;;;;;5.70;1.60;;;;;;;1.44;95.33;101737.78;4995649;28;20469;-67
2023/02/02 18:03:47;;;;;;;8.60;1.80;;;;;;;1.53;95.43;101733.03;4995704;28;20480;-66
2023/02/02 18:06:13;;;;;;;5.77;1.37;;;;;;;1.46;97.25;101727.72;4995921;28;20792;-67
2023/02/02 18:08:40;;;;;;;8.20;1.67;;;;;;;1.43;97.24;101728.16;4995493;28;20977;-66
2023/02/02 18:11:12;;;;;;;6.53;1.60;;;;;;;1.39;98.26;101737.59;4995436;28;20482;-67
2023/02/02 18:13:41;;;;;;;5.90;1.73;;;;;;;1.34;98.40;101737.41;4995756;28;20448;-67
2023/02/02 18:16:08;;;;;;;6.10;1.53;;;;;;;1.31;98.44;101734.34;4995651;28;20485;-67
2023/02/02 18:18:35;;;;;;;6.50;1.40;;;;;;;1.31;97.96;101737.03;4995714;28;20444;-67
2023/02/02 18:21:02;;;;;;;6.30;1.57;;;;;;;1.32;98.14;101733.31;4995515;28;20465;-67
2023/02/02 18:23:29;;;;;;;11.83;1.83;;;;;;;1.24;97.52;101731.72;4995272;28;20480;-66
2023/02/02 18:25:55;;;;;;;6.87;1.80;;;;;;;1.10;99.02;101738.91;4995255;28;21045;-67
2023/02/02 18:28:22;;;;;;;13.40;1.60;;;;;;;1.10;98.68;101735.44;4995450;28;20441;-67
2023/02/02 18:30:50;;;;;;;4.97;1.07;;;;;;;1.07;99.92;101734.03;4995056;28;20540;-66
2023/02/02 18:33:18;;;;;;;5.70;1.00;;;;;;;1.14;99.81;101742.81;4994803;28;20443;-67
2023/02/02 18:35:46;;;;;;;5.27;0.90;;;;;;;1.11;99.44;101739.75;4994439;28;20555;-67
2023/02/02 18:38:13;;;;;;;5.00;1.30;;;;;;;1.09;98.93;101739.94;4994666;28;20459;-66
2023/02/02 18:40:40;;;;;;;6.90;1.43;;;;;;;1.11;98.79;101735.25;4994209;28;20496;-67
2023/02/02 18:43:07;;;;;;;8.37;2.17;;;;;;;1.11;99.44;101735.25;4994272;28;20818;-67
2023/02/02 18:45:34;;;;;;;5.57;1.40;;;;;;;1.10;99.86;101736.25;4994212;28;20445;-67
2023/02/02 18:48:02;;;;;;;5.67;1.33;;;;;;;1.11;100.00;101731.75;4994741;28;20495;-67
2023/02/02 18:50:29;;;;;;;5.20;1.63;;;;;;;1.03;100.00;101724.78;4994694;28;20535;-66
2023/02/02 18:52:56;;;;;;;6.30;1.50;;;;;;;0.89;100.00;101733.88;4994979;28;20441;-67
2023/02/02 18:55:23;;;;;;;8.70;2.00;;;;;;;0.81;100.00;101732.22;4994580;28;20555;-67
2023/02/02 18:57:49;;;;;;;7.60;1.97;;;;;;;0.88;100.00;101722.34;4994467;28;21036;-67
2023/02/02 19:00:16;;;;;;;5.10;1.40;;;;;;;0.88;100.00;101722.34;4994719;28;20467;-67
2023/02/02 19:02:43;;;;;;;7.13;2.10;;;;;;;0.88;99.62;101730.34;4993878;28;20552;-67
2023/02/02 19:07:55;;;;;;;7.13;2.03;;;;;;;0.80;99.39;101724.41;4994489;28;20408;-68
2023/02/02 19:10:23;;;;;;;6.20;1.63;;;;;;;0.63;99.64;101722.19;4994576;28;20817;-68
2023/02/02 19:12:54;;;;;;;10.23;2.37;;;;;;;0.68;100.00;101721.59;4994643;28;20473;-67
2023/02/02 19:15:21;;;;;;;5.67;1.73;;;;;;;0.69;100.00;101731.22;4994308;28;20497;-68
2023/02/02 19:17:50;;;;;;;6.60;1.40;;;;;;;0.62;100.00;101741.91;4994133;28;20637;-68
2023/02/02 19:20:26;;;;;;;5.50;1.90;;;;;;;0.50;100.00;101746.19;4994269;28;20500;-68
2023/02/02 19:22:59;;;;;;;6.40;2.10;;;;;;;0.55;100.00;101743.72;4994353;28;20469;-68
2023/02/02 19:25:25;;;;;;;13.33;2.80;;;;;;;0.64;100.00;101739.84;4994330;28;20426;-68
2023/02/02 19:27:52;;;;;;;8.23;2.33;;;;;;;0.60;100.00;101746.59;4994485;28;20449;-69
2023/02/02 19:30:21;;;;;;;11.93;3.70;;;;;;;0.65;100.00;101757.47;4994181;28;20451;-69
2023/02/02 19:32:48;;;;;;;10.53;2.50;;;;;;;0.61;100.00;101753.56;4994179;28;20511;-65
2023/02/02 19:35:20;;;;;;;7.73;3.23;;;;;;;0.60;100.00;101751.94;4994150;28;20503;-68
2023/02/02 19:37:49;;;;;;;7.97;3.07;;;;;;;0.57;100.00;101752.34;4994081;28;20571;-66
2023/02/02 19:40:21;;;;;;;7.87;3.17;;;;;;;0.58;100.00;101756.66;4993692;28;21029;-66
2023/02/02 19:42:51;;;;;;;12.07;3.80;;;;;;;0.66;100.00;101761.75;4993798;28;20942;-67
2023/02/02 19:45:23;;;;;;;9.83;3.67;;;;;;;0.65;100.00;101751.31;4993786;28;20528;-66
2023/02/02 19:47:51;;;;;;;13.73;3.70;;;;;;;0.60;100.00;101748.44;4993842;28;20956;-67
2023/02/02 19:50:20;;;;;;;9.77;3.67;;;;;;;0.57;100.00;101755.00;4993922;28;20491;-65
2023/02/02 19:52:50;;;;;;;7.50;3.20;;;;;;;0.63;100.00;101756.88;4993977;28;20536;-66
2023/02/02 19:55:22;;;;;;;8.70;4.17;;;;;;;0.68;100.00;101758.91;4993735;28;20467;-66
2023/02/02 19:57:49;;;;;;;13.10;4.77;;;;;;;0.80;100.00;101759.94;4993584;28;20508;-67
2023/02/02 20:00:20;;;;;;;10.53;4.47;;;;;;;0.80;100.00;101756.41;4993440;28;20449;-66
2023/02/02 20:02:58;;;;;;;12.40;4.03;;;;;;;0.73;100.00;101762.59;4993568;28;20500;-67
2023/02/02 20:05:26;;;;;;;7.13;3.00;;;;;;;0.81;100.00;101758.06;4993474;28;20449;-66
2023/02/02 20:08:00;;;;;;;8.50;3.43;;;;;;;0.90;100.00;101756.84;4993418;28;20447;-67
2023/02/02 20:10:29;;;;;;;15.40;4.43;;;;;;;0.98;100.00;101759.28;4993174;28;20982;-66
2023/02/02 20:12:56;;;;;;;10.03;4.23;;;;;;;0.97;100.00;101758.47;4992857;28;21073;-67
2023/02/02 20:15:32;;;;;;;14.03;4.27;;;;;;;0.90;100.00;101762.97;4993422;28;20429;-66
2023/02/02 20:18:01;;;;;;;10.60;4.10;;;;;;;0.86;100.00;101763.59;4993393;28;20472;-67
2023/02/02 20:20:30;;;;;;;8.90;3.00;;;;;;;0.86;100.00;101756.41;4993082;28;20482;-66
2023/02/02 20:22:58;;;;;;;8.77;3.97;;;;;;;0.87;100.00;101758.06;4993361;28;20437;-66
2023/02/02 20:25:25;;;;;;;9.23;3.40;;;;;;;0.91;100.00;101753.13;4993080;28;20451;-66
2023/02/02 20:27:52;;;;;;;9.60;3.63;;;;;;;1.00;100.00;101759.88;4993503;28;20455;-67
2023/02/02 20:30:22;;;;;;;14.93;5.90;;;;;;;1.00;99.59;101751.88;4993568;28;20804;-66
2023/02/02 20:32:53;;;;;;;10.57;3.73;;;;;;;0.95;99.62;101749.03;4993528;28;20871;-67
2023/02/02 20:35:24;;;;;;;11.60;3.70;;;;;;;1.02;99.36;101744.50;4993304;28;20902;-66
2023/02/02 20:37:51;;;;;;;12.13;4.50;;;;;;;1.07;99.21;101741.22;4993681;28;20504;-67
2023/02/02 20:40:27;;;;;;;7.73;3.73;;;;;;;0.95;99.35;101746.34;4993572;28;20448;-66
2023/02/02 20:42:56;;;;;;;10.33;5.00;;;;;;;0.88;99.81;101753.53;4993913;28;20459;-67
2023/02/02 20:45:24;;;;;;;9.70;4.50;;;;;;;0.84;100.00;101753.16;4993529;28;20858;-66
2023/02/02 20:47:51;;;;;;;9.70;3.87;;;;;;;0.86;100.00;101750.28;4993512;28;20823;-67
2023/02/02 20:50:20;;;;;;;10.77;4.70;;;;;;;0.88;100.00;101746.34;4993233;28;20478;-66
2023/02/02 20:52:47;;;;;;;10.00;3.83;;;;;;;0.88;100.00;101749.03;4993494;28;20451;-67
2023/02/02 20:55:14;;;;;;;7.83;3.97;;;;;;;0.85;100.00;101740.63;4993060;28;20544;-67
2023/02/02 20:57:41;;;;;;;13.50;3.93;;;;;;;0.89;100.00;101736.53;4993681;28;20535;-68
2023/02/02 21:00:11;;;;;;;8.23;3.47;;;;;;;0.88;100.00;101742.88;4993095;28;20964;-66
2023/02/02 21:02:38;;;;;;;12.03;4.60;;;;;;;0.92;100.00;101739.56;4993301;28;20465;-67
2023/02/02 21:05:05;;;;;;;12.90;4.00;;;;;;;0.97;100.00;101742.47;4993257;28;20449;-67
2023/02/02 21:07:32;;;;;;;13.63;4.13;;;;;;;0.91;100.00;101740.59;4993032;28;20444;-66
2023/02/02 21:09:58;;;;;;;10.30;3.87;;;;;;;0.89;100.00;101736.53;4993357;28;20811;-66
2023/02/02 21:12:25;;;;;;;7.87;3.70;;;;;;;0.96;100.00;101724.81;4993247;28;20473;-67
2023/02/02 21:14:53;;;;;;;8.97;3.83;;;;;;;1.00;100.00;101717.19;4992998;28;20488;-67
2023/02/02 21:17:20;;;;;;;13.20;4.27;;;;;;;1.02;100.00;101717.81;4993137;28;20488;-67
2023/02/02 21:19:46;;;;;;;14.57;3.73;;;;;;;1.14;100.00;101712.66;4992884;28;20528;-67
2023/02/02 21:22:13;;;;;;;9.27;3.80;;;;;;;1.11;100.00;101705.91;4993119;28;20468;-67
2023/02/02 21:24:40;;;;;;;9.10;3.83;;;;;;;1.16;100.00;101715.94;4992997;28;20528;-66
2023/02/02 21:27:07;;;;;;;15.77;5.50;;;;;;;1.07;100.00;101717.19;4996379;28;20964;-67
2023/02/02 21:29:34;;;;;;;11.90;5.07;;;;;;;0.98;100.00;101713.94;4996350;28;20941;-67
2023/02/02 21:32:03;;;;;;;17.53;4.80;;;;;;;1.05;100.00;101709.38;4996214;28;20460;-67
2023/02/02 21:34:30;;;;;;;8.27;4.30;;;;;;;1.07;100.00;101706.53;4996535;28;20437;-67
2023/02/02 21:36:58;;;;;;;10.80;4.17;;;;;;;1.13;100.00;101705.69;4996478;28;20489;-67
2023/02/02 21:39:29;;;;;;;14.93;4.37;;;;;;;1.13;100.00;101706.50;4996545;28;20433;-67
2023/02/02 21:42:10;;;;;;;12.70;4.80;;;;;;;0.99;100.00;101704.91;4996375;28;20475;-66
2023/02/02 21:44:38;;;;;;;10.70;4.30;;;;;;;1.00;100.00;101693.19;4996412;28;20432;-67
2023/02/02 21:47:25;;;;;;;10.90;4.37;;;;;;;0.88;100.00;101701.00;4996351;28;20535;-67
2023/02/02 21:49:52;;;;;;;10.30;4.33;;;;;;;0.89;100.00;101707.19;4996269;28;20461;-67
2023/02/02 21:52:19;;;;;;;12.57;5.13;;;;;;;0.78;100.00;101695.31;4996148;28;20555;-66
2023/02/02 21:54:48;;;;;;;12.23;4.20;;;;;;;0.85;100.00;101696.13;4995697;28;20456;-66
2023/02/02 21:57:17;;;;;;;11.47;5.00;;;;;;;0.88;100.00;101694.88;4995987;28;20513;-66
2023/02/02 21:59:45;;;;;;;11.77;4.27;;;;;;;0.88;100.00;101687.69;4995712;28;20533;-66
2023/02/02 22:02:35;;;;;;;15.93;4.27;;;;;;;0.91;100.00;101681.13;4995638;28;20994;-67
2023/02/02 22:05:10;;;;;;;11.07;4.23;;;;;;;1.01;100.00;101678.81;4995945;28;20430;-66
2023/02/02 22:07:37;;;;;;;15.60;5.13;;;;;;;0.95;100.00;101677.81;4995566;28;20433;-68
2023/02/02 22:10:24;;;;;;;9.47;4.20;;;;;;;0.98;100.00;101674.75;4995479;28;21041;-67
2023/02/02 22:12:50;;;;;;;8.67;3.57;;;;;;;1.07;100.00;101682.53;4995883;28;20428;-67
2023/02/02 22:15:21;;;;;;;11.13;4.33;;;;;;;1.13;100.00;101665.66;4995426;28;20540;-66
2023/02/02 22:17:49;;;;;;;8.47;2.90;;;;;;;1.10;100.00;101672.22;4995649;28;20860;-67
2023/02/02 22:20:29;;;;;;;16.70;3.30;;;;;;;1.14;100.00;101675.28;4995546;28;20484;-66
2023/02/02 22:22:56;;;;;;;8.73;2.63;;;;;;;1.21;100.00;101668.91;4995663;28;20436;-66
2023/02/02 22:25:30;;;;;;;7.60;2.60;;;;;;;1.32;100.00;101666.59;4995247;28;20455;-67
2023/02/02 22:27:58;;;;;;;9.23;2.83;;;;;;;1.44;100.00;101668.38;4995264;28;20578;-65
2023/02/02 22:30:28;;;;;;;10.13;2.60;;;;;;;1.49;100.00;101670.41;4995139;28;20950;-65
2023/02/02 22:32:56;;;;;;;6.80;2.20;;;;;;;1.56;100.00;101668.53;4995363;28;20887;-65
2023/02/02 22:35:22;;;;;;;14.80;3.30;;;;;;;1.67;100.00;101669.69;4995339;28;20535;-65
2023/02/02 22:37:50;;;;;;;6.67;2.17;;;;;;;1.76;100.00;101666.53;4995005;28;20575;-65
2023/02/02 22:40:21;;;;;;;9.93;2.37;;;;;;;1.83;100.00;101671.03;4995190;28;20437;-64
2023/02/02 22:42:47;;;;;;;6.17;2.40;;;;;;;1.90;100.00;101675.28;4995159;28;20437;-65
2023/02/02 22:45:14;;;;;;;6.73;2.03;;;;;;;1.96;100.00;101676.28;4994893;28;20441;-65
2023/02/02 22:47:40;;;;;;;7.87;2.53;;;;;;;1.98;100.00;101671.53;4994821;28;20823;-65
2023/02/02 22:50:09;;;;;;;10.70;2.53;;;;;;;2.08;100.00;101668.38;4994753;28;20821;-64
2023/02/02 22:52:36;;;;;;;9.40;1.87;;;;;;;2.18;100.00;101668.72;4994943;28;20560;-65
2023/02/02 22:55:02;;;;;;;7.77;2.33;;;;;;;2.24;100.00;101674.00;4994610;28;20460;-65
2023/02/02 22:57:29;;;;;;;7.63;2.40;;;;;;;2.33;100.00;101673.72;4994906;28;20902;-65
2023/02/02 22:59:55;;;;;;;6.33;1.77;;;;;;;2.38;100.00;101669.34;4994887;28;20563;-64
2023/02/02 23:02:22;;;;;;;7.43;1.97;;;;;;;2.43;100.00;101666.81;4994476;28;20849;-65
2023/02/02 23:04:48;;;;;;;7.50;2.20;;;;;;;2.43;100.00;101671.38;4994800;28;20451;-65
2023/02/02 23:07:17;;;;;;;6.73;2.40;;;;;;;2.47;100.00;101672.56;4994518;28;20445;-65
2023/02/02 23:09:43;;;;;;;6.20;2.23;;;;;;;2.44;100.00;101670.34;4994776;28;20453;-64
2023/02/02 23:12:10;;;;;;;7.77;2.20;;;;;;;2.49;100.00;101662.47;4994563;28;20568;-65
2023/02/02 23:14:36;;;;;;;8.70;2.00;;;;;;;2.49;100.00;101663.28;4994616;28;20444;-66
2023/02/02 23:17:03;;;;;;;9.27;2.30;;;;;;;2.52;100.00;101664.69;4994520;28;20440;-65
2023/02/02 23:19:30;;;;;;;5.67;1.70;;;;;;;2.60;100.00;101667.09;4994510;28;20452;-65
2023/02/02 23:21:56;;;;;;;10.40;2.70;;;;;;;2.66;100.00;101660.88;4994191;28;21053;-65
2023/02/02 23:24:24;;;;;;;7.77;2.50;;;;;;;2.69;100.00;101651.56;4994211;28;20468;-65
2023/02/02 23:26:51;;;;;;;8.00;2.37;;;;;;;2.73;100.00;101648.22;4994314;28;20445;-65
2023/02/02 23:29:17;;;;;;;11.93;2.27;;;;;;;2.81;100.00;101639.09;4994381;28;20447;-65
2023/02/02 23:31:44;;;;;;;8.00;2.33;;;;;;;2.86;100.00;101638.41;4994416;28;20483;-65
2023/02/02 23:34:11;;;;;;;7.27;2.30;;;;;;;2.85;100.00;101634.94;4994395;28;20473;-65
2023/02/02 23:36:37;;;;;;;12.40;2.70;;;;;;;2.92;100.00;101633.00;4994326;28;20499;-65
2023/02/02 23:39:04;;;;;;;8.73;2.23;;;;;;;2.94;100.00;101630.09;4994101;28;20489;-65
2023/02/02 23:41:32;;;;;;;6.50;2.67;;;;;;;2.98;100.00;101616.03;4994148;28;20491;-66
2023/02/02 23:43:58;;;;;;;8.80;2.83;;;;;;;3.02;100.00;101613.75;4994155;28;20530;-66
2023/02/02 23:46:25;;;;;;;11.63;2.40;;;;;;;3.00;100.00;101607.78;4993809;28;20449;-66
2023/02/02 23:48:52;;;;;;;9.23;2.47;;;;;;;3.10;100.00;101610.75;4993464;28;20437;-66
2023/02/02 23:51:19;;;;;;;10.17;2.33;;;;;;;3.15;100.00;101610.91;4993995;28;20876;-65
2023/02/02 23:53:46;;;;;;;8.20;2.20;;;;;;;3.19;100.00;101606.72;4993696;28;20457;-65
2023/02/02 23:56:13;;;;;;;15.63;2.40;;;;;;;3.24;100.00;101608.72;4993989;28;20440;-64
2023/02/02 23:58:41;;;;;;;8.33;1.97;;;;;;;3.21;100.00;101599.28;4993883;28;20483;-65
